Weather at Mont Llaret Pic d'Aude Airfield

Public forecast

Using degrees Celsius for public forecast. Weather courtesy of forecast.io.

Closest aviation weather report (METAR) to Mont Llaret Pic d'Aude Airfield

Closest report is Pirineus - la Seu d'Urgel Airport, 31.3 nm (58.0 km) WSW. Retrieved 2020/09/19 15:30 UTC (21 minutes ago):

LESU 191530Z 20006KT 150V250 9999 SCT054 BKN070 22/12 Q1014

Closest aviation forecast (TAF) to Mont Llaret Pic d'Aude Airfield

Closest forecast is Pirineus - la Seu d'Urgel Airport, 31.3 nm (58.0 km) WSW. Retrieved 2020/09/19 15:00 UTC (51 minutes ago):

TAF LESU 191400Z 1915/2015 VRB03KT 9999 FEW010 BKN020 TX25/2014Z TN08/2005Z PROB40 TEMPO 1915/1916 VRB05G15KT 3000 TSRA FEW025CB BKN040